sensor_id;sensor_type;location;lat;lon;timestamp;pressure;altitude;pressure_sealevel;temperature;humidity
32131;BME280;18639;50.716;7.086;2022-09-19T00:01:37;100447.38;;;9.74;100.00
32131;BME280;18639;50.716;7.086;2022-09-19T00:04:09;100436.78;;;9.64;100.00
32131;BME280;18639;50.716;7.086;2022-09-19T00:06:36;100451.16;;;9.68;100.00
32131;BME280;18639;50.716;7.086;2022-09-19T00:09:04;100452.19;;;9.80;100.00
32131;BME280;18639;50.716;7.086;2022-09-19T00:11:30;100454.50;;;9.85;100.00
32131;BME280;18639;50.716;7.086;2022-09-19T00:13:59;100462.16;;;9.86;100.00
32131;BME280;18639;50.716;7.086;2022-09-19T00:16:30;100446.94;;;9.82;100.00
32131;BME280;18639;50.716;7.086;2022-09-19T00:18:57;100438.28;;;9.83;100.00
32131;BME280;18639;50.716;7.086;2022-09-19T00:21:26;100433.56;;;9.75;100.00
32131;BME280;18639;50.716;7.086;2022-09-19T00:23:52;100451.53;;;9.91;100.00
32131;BME280;18639;50.716;7.086;2022-09-19T00:26:36;100453.50;;;9.87;100.00
32131;BME280;18639;50.716;7.086;2022-09-19T00:29:03;100455.78;;;9.92;100.00
32131;BME280;18639;50.716;7.086;2022-09-19T00:31:29;100454.50;;;9.85;100.00
32131;BME280;18639;50.716;7.086;2022-09-19T00:33:55;100452.81;;;9.84;100.00
32131;BME280;18639;50.716;7.086;2022-09-19T00:36:21;100448.84;;;9.78;100.00
32131;BME280;18639;50.716;7.086;2022-09-19T00:38:47;100450.06;;;9.72;100.00
32131;BME280;18639;50.716;7.086;2022-09-19T00:41:14;100460.69;;;9.82;100.00
32131;BME280;18639;50.716;7.086;2022-09-19T00:46:12;100447.78;;;9.82;100.00
32131;BME280;18639;50.716;7.086;2022-09-19T00:48:38;100460.84;;;9.79;100.00
32131;BME280;18639;50.716;7.086;2022-09-19T00:51:09;100448.97;;;9.77;100.00
32131;BME280;18639;50.716;7.086;2022-09-19T00:53:36;100454.69;;;9.82;100.00
32131;BME280;18639;50.716;7.086;2022-09-19T00:56:02;100437.97;;;9.73;100.00
32131;BME280;18639;50.716;7.086;2022-09-19T00:58:37;100453.84;;;9.81;100.00
32131;BME280;18639;50.716;7.086;2022-09-19T01:01:03;100452.19;;;9.80;100.00
32131;BME280;18639;50.716;7.086;2022-09-19T01:03:29;100445.44;;;9.78;100.00
32131;BME280;18639;50.716;7.086;2022-09-19T01:05:59;100445.91;;;9.84;100.00
32131;BME280;18639;50.716;7.086;2022-09-19T01:11:10;100461.97;;;9.89;100.00
32131;BME280;18639;50.716;7.086;2022-09-19T01:14:03;100451.53;;;9.91;100.00
32131;BME280;18639;50.716;7.086;2022-09-19T01:16:44;100475.06;;;10.00;100.00
32131;BME280;18639;50.716;7.086;2022-09-19T01:19:19;100466.59;;;9.98;100.00
32131;BME280;18639;50.716;7.086;2022-09-19T01:22:04;100466.84;;;9.94;100.00
32131;BME280;18639;50.716;7.086;2022-09-19T01:25:00;100470.44;;;9.91;100.00
32131;BME280;18639;50.716;7.086;2022-09-19T01:30:21;100463.53;;;9.92;100.00
32131;BME280;18639;50.716;7.086;2022-09-19T01:32:57;100460.03;;;9.93;100.00
32131;BME280;18639;50.716;7.086;2022-09-19T01:35:28;100469.41;;;9.94;100.00
32131;BME280;18639;50.716;7.086;2022-09-19T01:38:03;100470.44;;;9.91;100.00
32131;BME280;18639;50.716;7.086;2022-09-19T01:40:30;100465.94;;;9.95;100.00
32131;BME280;18639;50.716;7.086;2022-09-19T01:42:56;100453.94;;;9.94;100.00
32131;BME280;18639;50.716;7.086;2022-09-19T01:45:26;100456.25;;;9.98;100.00
32131;BME280;18639;50.716;7.086;2022-09-19T01:50:44;100477.56;;;10.16;100.00
32131;BME280;18639;50.716;7.086;2022-09-19T01:53:39;100493.44;;;10.24;100.00
32131;BME280;18639;50.716;7.086;2022-09-19T01:56:22;100490.13;;;10.22;100.00
32131;BME280;18639;50.716;7.086;2022-09-19T01:59:17;100493.34;;;10.26;100.00
32131;BME280;18639;50.716;7.086;2022-09-19T02:01:55;100489.28;;;10.22;100.00
32131;BME280;18639;50.716;7.086;2022-09-19T02:04:30;100504.59;;;10.25;100.00
32131;BME280;18639;50.716;7.086;2022-09-19T02:07:05;100488.72;;;10.17;100.00
32131;BME280;18639;50.716;7.086;2022-09-19T02:09:42;100475.31;;;10.10;100.00
32131;BME280;18639;50.716;7.086;2022-09-19T02:12:10;100491.16;;;10.20;100.00
32131;BME280;18639;50.716;7.086;2022-09-19T02:14:38;100498.78;;;10.21;100.00
32131;BME280;18639;50.716;7.086;2022-09-19T02:17:08;100493.72;;;10.20;100.00
32131;BME280;18639;50.716;7.086;2022-09-19T02:19:44;100487.44;;;10.09;100.00
32131;BME280;18639;50.716;7.086;2022-09-19T02:22:18;100492.31;;;10.14;100.00
32131;BME280;18639;50.716;7.086;2022-09-19T02:24:46;100501.38;;;10.21;100.00
32131;BME280;18639;50.716;7.086;2022-09-19T02:27:21;100498.22;;;10.16;100.00
32131;BME280;18639;50.716;7.086;2022-09-19T02:29:52;100485.22;;;10.03;100.00
32131;BME280;18639;50.716;7.086;2022-09-19T02:32:19;100483.53;;;10.02;100.00
32131;BME280;18639;50.716;7.086;2022-09-19T02:34:46;100504.75;;;10.07;100.00
32131;BME280;18639;50.716;7.086;2022-09-19T02:37:34;100497.56;;;9.98;100.00
32131;BME280;18639;50.716;7.086;2022-09-19T02:40:04;100515.16;;;10.06;100.00
32131;BME280;18639;50.716;7.086;2022-09-19T02:42:48;100506.78;;;10.02;100.00
32131;BME280;18639;50.716;7.086;2022-09-19T02:45:27;100515.91;;;10.08;100.00
32131;BME280;18639;50.716;7.086;2022-09-19T02:48:02;100504.84;;;10.06;100.00
32131;BME280;18639;50.716;7.086;2022-09-19T02:50:40;100487.88;;;10.02;100.00
32131;BME280;18639;50.716;7.086;2022-09-19T02:53:13;100526.63;;;10.16;100.00
32131;BME280;18639;50.716;7.086;2022-09-19T02:55:45;100517.19;;;10.15;100.00
32131;BME280;18639;50.716;7.086;2022-09-19T02:58:13;100512.97;;;10.14;100.00
32131;BME280;18639;50.716;7.086;2022-09-19T03:00:45;100509.44;;;10.15;100.00
32131;BME280;18639;50.716;7.086;2022-09-19T03:03:21;100533.31;;;10.20;100.00
32131;BME280;18639;50.716;7.086;2022-09-19T03:06:09;100524.94;;;10.15;100.00
32131;BME280;18639;50.716;7.086;2022-09-19T03:08:37;100523.13;;;10.17;100.00
32131;BME280;18639;50.716;7.086;2022-09-19T03:11:07;100533.56;;;10.30;100.00
32131;BME280;18639;50.716;7.086;2022-09-19T03:13:37;100525.16;;;10.26;100.00
32131;BME280;18639;50.716;7.086;2022-09-19T03:16:09;100529.50;;;10.26;100.00
32131;BME280;18639;50.716;7.086;2022-09-19T03:18:39;100537.44;;;10.23;100.00
32131;BME280;18639;50.716;7.086;2022-09-19T03:21:08;100530.88;;;10.31;100.00
32131;BME280;18639;50.716;7.086;2022-09-19T03:23:42;100534.66;;;10.40;100.00
32131;BME280;18639;50.716;7.086;2022-09-19T03:26:12;100529.03;;;10.33;100.00
32131;BME280;18639;50.716;7.086;2022-09-19T03:28:38;100525.69;;;10.31;100.00
32131;BME280;18639;50.716;7.086;2022-09-19T03:31:07;100530.31;;;10.26;100.00
32131;BME280;18639;50.716;7.086;2022-09-19T03:33:33;100517.81;;;10.20;100.00
32131;BME280;18639;50.716;7.086;2022-09-19T03:35:59;100537.34;;;10.24;100.00
32131;BME280;18639;50.716;7.086;2022-09-19T03:38:31;100543.06;;;10.29;100.00
32131;BME280;18639;50.716;7.086;2022-09-19T03:40:57;100525.91;;;10.28;100.00
32131;BME280;18639;50.716;7.086;2022-09-19T03:43:22;100544.63;;;10.32;100.00
32131;BME280;18639;50.716;7.086;2022-09-19T03:45:48;100549.91;;;10.30;100.00
32131;BME280;18639;50.716;7.086;2022-09-19T03:48:13;100516.13;;;10.19;100.00
32131;BME280;18639;50.716;7.086;2022-09-19T03:50:38;100542.41;;;10.40;100.00
32131;BME280;18639;50.716;7.086;2022-09-19T03:53:13;100540.66;;;10.40;100.00
32131;BME280;18639;50.716;7.086;2022-09-19T03:55:39;100526.09;;;10.25;100.00
32131;BME280;18639;50.716;7.086;2022-09-19T03:58:07;100550.34;;;10.37;100.00
32131;BME280;18639;50.716;7.086;2022-09-19T04:00:32;100551.72;;;10.42;100.00
32131;BME280;18639;50.716;7.086;2022-09-19T04:02:58;100535.31;;;10.29;100.00
32131;BME280;18639;50.716;7.086;2022-09-19T04:05:23;100558.47;;;10.45;100.00
32131;BME280;18639;50.716;7.086;2022-09-19T04:07:48;100533.38;;;10.33;100.00
32131;BME280;18639;50.716;7.086;2022-09-19T04:10:14;100536.78;;;10.33;100.00
32131;BME280;18639;50.716;7.086;2022-09-19T04:12:41;100547.66;;;10.38;100.00
32131;BME280;18639;50.716;7.086;2022-09-19T04:15:06;100560.97;;;10.46;100.00
32131;BME280;18639;50.716;7.086;2022-09-19T04:17:32;100566.78;;;10.50;100.00
32131;BME280;18639;50.716;7.086;2022-09-19T04:19:58;100567.97;;;10.44;100.00
32131;BME280;18639;50.716;7.086;2022-09-19T04:22:23;100552.66;;;10.41;100.00
32131;BME280;18639;50.716;7.086;2022-09-19T04:24:48;100557.63;;;10.44;100.00
32131;BME280;18639;50.716;7.086;2022-09-19T04:27:14;100561.69;;;10.48;100.00
32131;BME280;18639;50.716;7.086;2022-09-19T04:29:40;100568.78;;;10.59;100.00
32131;BME280;18639;50.716;7.086;2022-09-19T04:32:06;100576.53;;;10.59;100.00
32131;BME280;18639;50.716;7.086;2022-09-19T04:34:32;100559.09;;;10.48;100.00
32131;BME280;18639;50.716;7.086;2022-09-19T04:36:58;100577.09;;;10.64;100.00
32131;BME280;18639;50.716;7.086;2022-09-19T04:39:24;100551.91;;;10.39;100.00
32131;BME280;18639;50.716;7.086;2022-09-19T04:41:49;100574.69;;;10.61;100.00
32131;BME280;18639;50.716;7.086;2022-09-19T04:44:19;100576.53;;;10.59;100.00
32131;BME280;18639;50.716;7.086;2022-09-19T04:46:47;100580.13;;;10.71;100.00
32131;BME280;18639;50.716;7.086;2022-09-19T04:49:16;100586.41;;;10.67;100.00
32131;BME280;18639;50.716;7.086;2022-09-19T04:51:41;100593.63;;;10.62;100.00
32131;BME280;18639;50.716;7.086;2022-09-19T04:54:06;100599.72;;;10.61;100.00
32131;BME280;18639;50.716;7.086;2022-09-19T04:56:32;100585.13;;;10.60;100.00
32131;BME280;18639;50.716;7.086;2022-09-19T04:58:58;100604.59;;;10.65;100.00
32131;BME280;18639;50.716;7.086;2022-09-19T05:01:25;100601.38;;;10.62;100.00
32131;BME280;18639;50.716;7.086;2022-09-19T05:03:51;100617.81;;;10.61;100.00
32131;BME280;18639;50.716;7.086;2022-09-19T05:06:16;100609.69;;;10.67;100.00
32131;BME280;18639;50.716;7.086;2022-09-19T05:08:43;100605.22;;;10.69;100.00
32131;BME280;18639;50.716;7.086;2022-09-19T05:11:09;100610.59;;;10.66;100.00
32131;BME280;18639;50.716;7.086;2022-09-19T05:13:36;100587.34;;;10.66;100.00
32131;BME280;18639;50.716;7.086;2022-09-19T05:16:06;100606.19;;;10.68;100.00
32131;BME280;18639;50.716;7.086;2022-09-19T05:18:32;100609.31;;;10.73;100.00
32131;BME280;18639;50.716;7.086;2022-09-19T05:21:03;100617.41;;;10.81;100.00
32131;BME280;18639;50.716;7.086;2022-09-19T05:23:28;100611.41;;;10.80;100.00
32131;BME280;18639;50.716;7.086;2022-09-19T05:25:54;100613.72;;;10.71;100.00
32131;BME280;18639;50.716;7.086;2022-09-19T05:28:21;100618.25;;;10.81;100.00
32131;BME280;18639;50.716;7.086;2022-09-19T05:30:49;100616.22;;;10.72;100.00
32131;BME280;18639;50.716;7.086;2022-09-19T05:33:19;100621.47;;;10.85;100.00
32131;BME280;18639;50.716;7.086;2022-09-19T05:35:49;100623.13;;;10.86;100.00
32131;BME280;18639;50.716;7.086;2022-09-19T05:38:15;100604.88;;;10.75;100.00
32131;BME280;18639;50.716;7.086;2022-09-19T05:40:40;100620.75;;;10.83;100.00
32131;BME280;18639;50.716;7.086;2022-09-19T05:43:05;100627.94;;;10.92;100.00
32131;BME280;18639;50.716;7.086;2022-09-19T05:45:31;100624.34;;;10.94;100.00
32131;BME280;18639;50.716;7.086;2022-09-19T05:48:01;100636.44;;;10.94;100.00
32131;BME280;18639;50.716;7.086;2022-09-19T05:50:27;100636.25;;;10.97;100.00
32131;BME280;18639;50.716;7.086;2022-09-19T05:52:53;100629.31;;;10.97;100.00
32131;BME280;18639;50.716;7.086;2022-09-19T05:55:37;100644.47;;;11.04;100.00
32131;BME280;18639;50.716;7.086;2022-09-19T05:58:03;100651.19;;;11.06;100.00
32131;BME280;18639;50.716;7.086;2022-09-19T06:00:30;100648.41;;;11.09;100.00
32131;BME280;18639;50.716;7.086;2022-09-19T06:03:00;100660.22;;;11.13;100.00
32131;BME280;18639;50.716;7.086;2022-09-19T06:05:27;100646.75;;;11.08;100.00
32131;BME280;18639;50.716;7.086;2022-09-19T06:07:54;100661.91;;;11.14;100.00
32131;BME280;18639;50.716;7.086;2022-09-19T06:10:22;100659.31;;;11.14;100.00
32131;BME280;18639;50.716;7.086;2022-09-19T06:12:49;100665.22;;;11.16;100.00
32131;BME280;18639;50.716;7.086;2022-09-19T06:15:14;100649.25;;;11.10;100.00
32131;BME280;18639;50.716;7.086;2022-09-19T06:17:39;100671.66;;;11.23;100.00
32131;BME280;18639;50.716;7.086;2022-09-19T06:20:05;100664.44;;;11.28;100.00
32131;BME280;18639;50.716;7.086;2022-09-19T06:22:30;100662.41;;;11.33;100.00
32131;BME280;18639;50.716;7.086;2022-09-19T06:24:56;100673.41;;;11.37;100.00
32131;BME280;18639;50.716;7.086;2022-09-19T06:27:21;100678.84;;;11.47;100.00
32131;BME280;18639;50.716;7.086;2022-09-19T06:29:46;100685.75;;;11.46;100.00
32131;BME280;18639;50.716;7.086;2022-09-19T06:32:12;100688.34;;;11.46;100.00
32131;BME280;18639;50.716;7.086;2022-09-19T06:34:37;100689.63;;;11.53;100.00
32131;BME280;18639;50.716;7.086;2022-09-19T06:37:03;100678.63;;;11.50;100.00
32131;BME280;18639;50.716;7.086;2022-09-19T06:39:28;100691.47;;;11.51;100.00
32131;BME280;18639;50.716;7.086;2022-09-19T06:41:54;100696.59;;;11.65;100.00
32131;BME280;18639;50.716;7.086;2022-09-19T06:44:20;100696.16;;;11.73;100.00
32131;BME280;18639;50.716;7.086;2022-09-19T06:46:48;100688.72;;;11.81;100.00
32131;BME280;18639;50.716;7.086;2022-09-19T06:49:13;100697.69;;;11.90;100.00
32131;BME280;18639;50.716;7.086;2022-09-19T06:51:39;100700.81;;;11.95;100.00
32131;BME280;18639;50.716;7.086;2022-09-19T06:54:04;100694.50;;;11.99;100.00
32131;BME280;18639;50.716;7.086;2022-09-19T06:56:29;100714.72;;;12.06;100.00
32131;BME280;18639;50.716;7.086;2022-09-19T06:58:55;100705.28;;;12.05;100.00
32131;BME280;18639;50.716;7.086;2022-09-19T07:01:20;100701.25;;;12.14;100.00
32131;BME280;18639;50.716;7.086;2022-09-19T07:03:46;100706.31;;;12.03;100.00
32131;BME280;18639;50.716;7.086;2022-09-19T07:06:11;100695.84;;;12.04;100.00
32131;BME280;18639;50.716;7.086;2022-09-19T07:08:36;100720.38;;;12.26;100.00
32131;BME280;18639;50.716;7.086;2022-09-19T07:11:03;100723.47;;;12.31;100.00
32131;BME280;18639;50.716;7.086;2022-09-19T07:13:29;100729.19;;;12.36;100.00
32131;BME280;18639;50.716;7.086;2022-09-19T07:15:57;100729.94;;;12.38;100.00
32131;BME280;18639;50.716;7.086;2022-09-19T07:18:23;100712.69;;;12.24;100.00
32131;BME280;18639;50.716;7.086;2022-09-19T07:20:48;100714.47;;;12.36;100.00
32131;BME280;18639;50.716;7.086;2022-09-19T07:23:17;100732.44;;;12.52;100.00
32131;BME280;18639;50.716;7.086;2022-09-19T07:25:43;100735.56;;;12.57;100.00
32131;BME280;18639;50.716;7.086;2022-09-19T07:28:11;100731.59;;;12.51;100.00
32131;BME280;18639;50.716;7.086;2022-09-19T07:30:37;100726.84;;;12.58;100.00
32131;BME280;18639;50.716;7.086;2022-09-19T07:33:05;100735.16;;;12.63;100.00
32131;BME280;18639;50.716;7.086;2022-09-19T07:35:34;100741.78;;;12.67;100.00
32131;BME280;18639;50.716;7.086;2022-09-19T07:38:00;100743.75;;;12.63;100.00
32131;BME280;18639;50.716;7.086;2022-09-19T07:40:26;100744.06;;;12.72;100.00
32131;BME280;18639;50.716;7.086;2022-09-19T07:42:51;100748.66;;;12.81;100.00
32131;BME280;18639;50.716;7.086;2022-09-19T07:45:17;100727.47;;;12.74;100.00
32131;BME280;18639;50.716;7.086;2022-09-19T07:47:47;100755.19;;;12.86;100.00
32131;BME280;18639;50.716;7.086;2022-09-19T07:50:15;100753.00;;;12.80;100.00
32131;BME280;18639;50.716;7.086;2022-09-19T07:52:45;100763.09;;;12.97;100.00
32131;BME280;18639;50.716;7.086;2022-09-19T07:55:16;100745.75;;;12.98;100.00
32131;BME280;18639;50.716;7.086;2022-09-19T07:57:52;100769.09;;;13.11;100.00
32131;BME280;18639;50.716;7.086;2022-09-19T08:00:18;100770.78;;;13.24;99.54
32131;BME280;18639;50.716;7.086;2022-09-19T08:02:43;100783.34;;;13.18;100.00
32131;BME280;18639;50.716;7.086;2022-09-19T08:05:09;100768.97;;;12.99;100.00
32131;BME280;18639;50.716;7.086;2022-09-19T08:07:34;100759.84;;;12.81;100.00
32131;BME280;18639;50.716;7.086;2022-09-19T08:09:59;100785.78;;;12.94;100.00
32131;BME280;18639;50.716;7.086;2022-09-19T08:12:28;100772.09;;;12.79;100.00
32131;BME280;18639;50.716;7.086;2022-09-19T08:14:53;100780.59;;;12.69;100.00
32131;BME280;18639;50.716;7.086;2022-09-19T08:17:21;100779.63;;;12.57;100.00
32131;BME280;18639;50.716;7.086;2022-09-19T08:19:46;100802.34;;;12.66;100.00
32131;BME280;18639;50.716;7.086;2022-09-19T08:22:12;100802.03;;;12.58;100.00
32131;BME280;18639;50.716;7.086;2022-09-19T08:24:38;100777.81;;;12.45;100.00
32131;BME280;18639;50.716;7.086;2022-09-19T08:27:03;100786.97;;;12.50;100.00
32131;BME280;18639;50.716;7.086;2022-09-19T08:29:28;100800.31;;;12.96;100.00
32131;BME280;18639;50.716;7.086;2022-09-19T08:31:54;100790.56;;;13.51;100.00
32131;BME280;18639;50.716;7.086;2022-09-19T08:34:19;100802.63;;;13.88;100.00
32131;BME280;18639;50.716;7.086;2022-09-19T08:36:44;100800.53;;;14.17;100.00
32131;BME280;18639;50.716;7.086;2022-09-19T08:39:10;100769.53;;;14.03;100.00
32131;BME280;18639;50.716;7.086;2022-09-19T08:44:45;100785.44;;;14.81;99.92
32131;BME280;18639;50.716;7.086;2022-09-19T08:47:20;100813.06;;;15.16;100.00
32131;BME280;18639;50.716;7.086;2022-09-19T08:49:54;100812.09;;;15.06;99.40
32131;BME280;18639;50.716;7.086;2022-09-19T08:53:11;100813.63;;;14.98;100.00
32131;BME280;18639;50.716;7.086;2022-09-19T08:55:31;100808.19;;;14.90;100.00
32131;BME280;18639;50.716;7.086;2022-09-19T08:58:05;100754.63;;;14.52;97.22
32131;BME280;18639;50.716;7.086;2022-09-19T09:00:46;100786.44;;;14.56;100.00
32131;BME280;18639;50.716;7.086;2022-09-19T09:03:17;100776.69;;;14.23;100.00
32131;BME280;18639;50.716;7.086;2022-09-19T09:13:58;100830.31;;;14.13;100.00
32131;BME280;18639;50.716;7.086;2022-09-19T09:19:23;100839.31;;;14.20;100.00
32131;BME280;18639;50.716;7.086;2022-09-19T09:22:19;100834.22;;;14.18;100.00
32131;BME280;18639;50.716;7.086;2022-09-19T09:24:57;100777.44;;;13.65;100.00
32131;BME280;18639;50.716;7.086;2022-09-19T09:27:34;100841.56;;;14.01;100.00
32131;BME280;18639;50.716;7.086;2022-09-19T09:30:11;100838.44;;;14.08;99.15
32131;BME280;18639;50.716;7.086;2022-09-19T09:32:56;100821.50;;;14.03;100.00
32131;BME280;18639;50.716;7.086;2022-09-19T09:35:42;100761.53;;;13.69;100.00
32131;BME280;18639;50.716;7.086;2022-09-19T09:38:39;100834.28;;;14.53;100.00
32131;BME280;18639;50.716;7.086;2022-09-19T09:41:15;100840.63;;;15.08;100.00
32131;BME280;18639;50.716;7.086;2022-09-19T09:47:04;100817.94;;;15.21;93.05
32131;BME280;18639;50.716;7.086;2022-09-19T09:49:34;100818.72;;;16.11;94.89
32131;BME280;18639;50.716;7.086;2022-09-19T09:52:18;100826.06;;;17.32;91.21
32131;BME280;18639;50.716;7.086;2022-09-19T10:00:42;100812.03;;;19.73;72.34
32131;BME280;18639;50.716;7.086;2022-09-19T10:06:34;100821.28;;;20.22;69.31
32131;BME280;18639;50.716;7.086;2022-09-19T10:12:04;100817.03;;;19.94;72.17
32131;BME280;18639;50.716;7.086;2022-09-19T10:14:47;100772.47;;;19.39;68.03
32131;BME280;18639;50.716;7.086;2022-09-19T10:17:21;100757.47;;;18.85;74.98
32131;BME280;18639;50.716;7.086;2022-09-19T10:20:05;100745.13;;;18.39;74.32
32131;BME280;18639;50.716;7.086;2022-09-19T10:22:36;100742.91;;;18.44;73.10
32131;BME280;18639;50.716;7.086;2022-09-19T10:25:19;100781.91;;;18.47;75.85
32131;BME280;18639;50.716;7.086;2022-09-19T10:27:46;100804.44;;;19.06;78.99
32131;BME280;18639;50.716;7.086;2022-09-19T10:30:19;100796.34;;;18.70;78.29
32131;BME280;18639;50.716;7.086;2022-09-19T10:32:48;100804.50;;;18.67;71.56
32131;BME280;18639;50.716;7.086;2022-09-19T10:35:52;100786.41;;;18.06;74.42
32131;BME280;18639;50.716;7.086;2022-09-19T10:38:27;100775.53;;;17.82;74.98
32131;BME280;18639;50.716;7.086;2022-09-19T10:40:59;100737.81;;;17.35;74.90
32131;BME280;18639;50.716;7.086;2022-09-19T10:43:45;100794.50;;;17.44;77.69
32131;BME280;18639;50.716;7.086;2022-09-19T10:46:26;100786.44;;;16.96;79.18
32131;BME280;18639;50.716;7.086;2022-09-19T10:49:12;100742.53;;;16.60;80.79
32131;BME280;18639;50.716;7.086;2022-09-19T10:51:45;100788.69;;;16.80;81.73
32131;BME280;18639;50.716;7.086;2022-09-19T10:54:30;100804.72;;;16.96;81.58
32131;BME280;18639;50.716;7.086;2022-09-19T10:56:58;100810.13;;;16.83;79.24
32131;BME280;18639;50.716;7.086;2022-09-19T10:59:29;100799.63;;;16.95;81.30
32131;BME280;18639;50.716;7.086;2022-09-19T11:02:22;100805.72;;;17.05;81.61
32131;BME280;18639;50.716;7.086;2022-09-19T11:04:59;100804.44;;;16.99;80.52
32131;BME280;18639;50.716;7.086;2022-09-19T11:07:48;100790.53;;;16.68;81.74
32131;BME280;18639;50.716;7.086;2022-09-19T11:10:36;100795.19;;;16.54;79.75
32131;BME280;18639;50.716;7.086;2022-09-19T11:13:16;100797.53;;;16.36;82.46
32131;BME280;18639;50.716;7.086;2022-09-19T11:22:00;100790.38;;;16.17;83.40
32131;BME280;18639;50.716;7.086;2022-09-19T11:24:43;100789.50;;;16.28;80.72
32131;BME280;18639;50.716;7.086;2022-09-19T11:28:01;100800.72;;;16.39;81.97
32131;BME280;18639;50.716;7.086;2022-09-19T11:35:28;100805.41;;;16.46;79.08
32131;BME280;18639;50.716;7.086;2022-09-19T11:40:57;100801.06;;;16.35;80.43
32131;BME280;18639;50.716;7.086;2022-09-19T11:54:59;100791.75;;;16.53;76.07
32131;BME280;18639;50.716;7.086;2022-09-19T11:57:32;100793.06;;;16.59;76.24
32131;BME280;18639;50.716;7.086;2022-09-19T12:00:12;100793.06;;;16.59;75.20
32131;BME280;18639;50.716;7.086;2022-09-19T12:02:57;100799.81;;;16.61;71.61
32131;BME280;18639;50.716;7.086;2022-09-19T12:05:53;100797.97;;;16.73;68.46
32131;BME280;18639;50.716;7.086;2022-09-19T12:11:15;100776.22;;;16.52;71.48
32131;BME280;18639;50.716;7.086;2022-09-19T12:14:02;100782.75;;;16.46;68.15
32131;BME280;18639;50.716;7.086;2022-09-19T12:16:45;100785.31;;;16.36;71.25
32131;BME280;18639;50.716;7.086;2022-09-19T12:19:18;100791.09;;;16.40;70.99
32131;BME280;18639;50.716;7.086;2022-09-19T12:21:58;100793.19;;;16.46;66.25
32131;BME280;18639;50.716;7.086;2022-09-19T12:24:34;100795.91;;;16.56;65.10
32131;BME280;18639;50.716;7.086;2022-09-19T12:27:31;100776.97;;;16.42;65.26
32131;BME280;18639;50.716;7.086;2022-09-19T12:30:12;100787.34;;;16.33;63.74
32131;BME280;18639;50.716;7.086;2022-09-19T12:32:51;100793.78;;;16.29;63.48
32131;BME280;18639;50.716;7.086;2022-09-19T12:35:26;100784.66;;;16.23;66.18
32131;BME280;18639;50.716;7.086;2022-09-19T12:41:05;100801.22;;;16.33;65.18
32131;BME280;18639;50.716;7.086;2022-09-19T12:43:54;100801.38;;;16.21;67.15
32131;BME280;18639;50.716;7.086;2022-09-19T12:49:41;100784.03;;;16.31;68.76
32131;BME280;18639;50.716;7.086;2022-09-19T12:55:13;100767.84;;;16.16;72.38
32131;BME280;18639;50.716;7.086;2022-09-19T12:57:50;100786.91;;;16.28;70.11
32131;BME280;18639;50.716;7.086;2022-09-19T13:00:18;100783.13;;;16.21;72.66
32131;BME280;18639;50.716;7.086;2022-09-19T13:05:18;100760.31;;;16.34;71.98
32131;BME280;18639;50.716;7.086;2022-09-19T13:07:58;100768.88;;;16.46;71.76
32131;BME280;18639;50.716;7.086;2022-09-19T13:10:38;100782.16;;;16.54;68.42
32131;BME280;18639;50.716;7.086;2022-09-19T13:13:11;100758.63;;;16.65;67.80
32131;BME280;18639;50.716;7.086;2022-09-19T13:15:51;100774.91;;;16.78;68.73
32131;BME280;18639;50.716;7.086;2022-09-19T13:18:18;100775.63;;;16.80;66.75
32131;BME280;18639;50.716;7.086;2022-09-19T13:21:04;100752.31;;;16.67;65.26
32131;BME280;18639;50.716;7.086;2022-09-19T13:23:59;100772.97;;;16.70;66.50
32131;BME280;18639;50.716;7.086;2022-09-19T13:26:28;100776.63;;;16.68;65.34
32131;BME280;18639;50.716;7.086;2022-09-19T13:29:01;100797.72;;;16.76;66.10
32131;BME280;18639;50.716;7.086;2022-09-19T13:31:33;100800.13;;;16.68;70.90
32131;BME280;18639;50.716;7.086;2022-09-19T13:36:57;100824.97;;;16.08;74.62
32131;BME280;18639;50.716;7.086;2022-09-19T13:39:54;100828.63;;;15.74;77.07
32131;BME280;18639;50.716;7.086;2022-09-19T13:42:34;100830.00;;;15.44;79.66
32131;BME280;18639;50.716;7.086;2022-09-19T13:50:50;100846.41;;;14.18;100.00
32131;BME280;18639;50.716;7.086;2022-09-19T13:53:42;100839.25;;;13.72;100.00
32131;BME280;18639;50.716;7.086;2022-09-19T13:56:49;100830.78;;;13.32;100.00
32131;BME280;18639;50.716;7.086;2022-09-19T13:59:39;100844.59;;;13.33;100.00
32131;BME280;18639;50.716;7.086;2022-09-19T14:04:40;100835.66;;;13.24;100.00
32131;BME280;18639;50.716;7.086;2022-09-19T14:21:02;100843.50;;;13.10;100.00
32131;BME280;18639;50.716;7.086;2022-09-19T14:23:39;100842.34;;;13.01;100.00
32131;BME280;18639;50.716;7.086;2022-09-19T14:28:49;100833.13;;;12.97;100.00
32131;BME280;18639;50.716;7.086;2022-09-19T14:34:51;100841.09;;;12.82;100.00
32131;BME280;18639;50.716;7.086;2022-09-19T14:48:28;100823.03;;;12.80;100.00
32131;BME280;18639;50.716;7.086;2022-09-19T14:51:07;100813.19;;;12.85;100.00
32131;BME280;18639;50.716;7.086;2022-09-19T14:53:41;100823.16;;;12.91;100.00
32131;BME280;18639;50.716;7.086;2022-09-19T14:56:11;100807.91;;;12.87;100.00
32131;BME280;18639;50.716;7.086;2022-09-19T14:58:38;100822.53;;;13.00;100.00
32131;BME280;18639;50.716;7.086;2022-09-19T15:01:13;100822.69;;;13.12;100.00
32131;BME280;18639;50.716;7.086;2022-09-19T15:06:33;100812.09;;;13.27;100.00
32131;BME280;18639;50.716;7.086;2022-09-19T15:08:59;100798.50;;;13.24;100.00
32131;BME280;18639;50.716;7.086;2022-09-19T15:11:25;100815.38;;;13.42;100.00
32131;BME280;18639;50.716;7.086;2022-09-19T15:13:52;100811.75;;;13.44;100.00